sensor_id;sensor_type;location;lat;lon;timestamp;P1;durP1;ratioP1;P2;durP2;ratioP2
47960;SDS011;33721;48.852;9.936;2023-02-28T00:01:10;10.93;;;3.50;;
47960;SDS011;33721;48.852;9.936;2023-02-28T00:03:37;10.05;;;3.63;;
47960;SDS011;33721;48.852;9.936;2023-02-28T00:06:03;8.77;;;3.83;;
47960;SDS011;33721;48.852;9.936;2023-02-28T00:08:29;11.73;;;3.85;;
47960;SDS011;33721;48.852;9.936;2023-02-28T00:10:55;7.50;;;3.50;;
47960;SDS011;33721;48.852;9.936;2023-02-28T00:13:21;10.95;;;4.30;;
47960;SDS011;33721;48.852;9.936;2023-02-28T00:15:47;8.80;;;4.07;;
47960;SDS011;33721;48.852;9.936;2023-02-28T00:18:12;10.32;;;3.72;;
47960;SDS011;33721;48.852;9.936;2023-02-28T00:20:38;8.52;;;4.00;;
47960;SDS011;33721;48.852;9.936;2023-02-28T00:23:04;11.43;;;4.03;;
47960;SDS011;33721;48.852;9.936;2023-02-28T00:25:29;12.57;;;3.88;;
47960;SDS011;33721;48.852;9.936;2023-02-28T00:27:55;10.73;;;4.68;;
47960;SDS011;33721;48.852;9.936;2023-02-28T00:30:22;8.73;;;4.35;;
47960;SDS011;33721;48.852;9.936;2023-02-28T00:32:48;8.57;;;3.90;;
47960;SDS011;33721;48.852;9.936;2023-02-28T00:35:14;11.65;;;4.47;;
47960;SDS011;33721;48.852;9.936;2023-02-28T00:37:40;11.05;;;4.32;;
47960;SDS011;33721;48.852;9.936;2023-02-28T00:40:06;12.88;;;4.80;;
47960;SDS011;33721;48.852;9.936;2023-02-28T00:42:34;11.73;;;3.88;;
47960;SDS011;33721;48.852;9.936;2023-02-28T00:45:00;10.23;;;4.25;;
47960;SDS011;33721;48.852;9.936;2023-02-28T00:47:26;13.90;;;4.55;;
47960;SDS011;33721;48.852;9.936;2023-02-28T00:49:51;10.70;;;4.50;;
47960;SDS011;33721;48.852;9.936;2023-02-28T00:52:17;12.10;;;4.38;;
47960;SDS011;33721;48.852;9.936;2023-02-28T00:54:42;11.93;;;4.43;;
47960;SDS011;33721;48.852;9.936;2023-02-28T00:57:08;11.30;;;4.80;;
47960;SDS011;33721;48.852;9.936;2023-02-28T00:59:34;10.90;;;4.63;;
47960;SDS011;33721;48.852;9.936;2023-02-28T01:02:00;11.68;;;4.82;;
47960;SDS011;33721;48.852;9.936;2023-02-28T01:04:26;13.40;;;4.40;;
47960;SDS011;33721;48.852;9.936;2023-02-28T01:06:51;12.15;;;4.60;;
47960;SDS011;33721;48.852;9.936;2023-02-28T01:09:17;15.05;;;4.80;;
47960;SDS011;33721;48.852;9.936;2023-02-28T01:11:44;10.77;;;4.57;;
47960;SDS011;33721;48.852;9.936;2023-02-28T01:14:14;11.45;;;5.13;;
47960;SDS011;33721;48.852;9.936;2023-02-28T01:16:41;9.63;;;4.85;;
47960;SDS011;33721;48.852;9.936;2023-02-28T01:19:06;11.20;;;5.07;;
47960;SDS011;33721;48.852;9.936;2023-02-28T01:21:32;13.80;;;4.85;;
47960;SDS011;33721;48.852;9.936;2023-02-28T01:23:59;11.38;;;4.95;;
47960;SDS011;33721;48.852;9.936;2023-02-28T01:26:25;12.45;;;4.72;;
47960;SDS011;33721;48.852;9.936;2023-02-28T01:28:51;13.98;;;4.95;;
47960;SDS011;33721;48.852;9.936;2023-02-28T01:31:18;9.90;;;4.15;;
47960;SDS011;33721;48.852;9.936;2023-02-28T01:33:44;11.25;;;4.78;;
47960;SDS011;33721;48.852;9.936;2023-02-28T01:36:12;12.25;;;5.13;;
47960;SDS011;33721;48.852;9.936;2023-02-28T01:38:43;12.20;;;5.07;;
47960;SDS011;33721;48.852;9.936;2023-02-28T01:41:12;12.68;;;5.03;;
47960;SDS011;33721;48.852;9.936;2023-02-28T01:46:07;13.27;;;5.25;;
47960;SDS011;33721;48.852;9.936;2023-02-28T01:48:33;9.98;;;4.93;;
47960;SDS011;33721;48.852;9.936;2023-02-28T01:51:03;14.20;;;5.13;;
47960;SDS011;33721;48.852;9.936;2023-02-28T01:53:36;14.18;;;5.10;;
47960;SDS011;33721;48.852;9.936;2023-02-28T01:56:05;12.80;;;5.50;;
47960;SDS011;33721;48.852;9.936;2023-02-28T01:58:34;15.73;;;6.03;;
47960;SDS011;33721;48.852;9.936;2023-02-28T02:01:01;14.10;;;4.93;;
47960;SDS011;33721;48.852;9.936;2023-02-28T02:03:28;11.35;;;5.38;;
47960;SDS011;33721;48.852;9.936;2023-02-28T02:05:55;12.73;;;5.10;;
47960;SDS011;33721;48.852;9.936;2023-02-28T02:08:24;12.60;;;5.60;;
47960;SDS011;33721;48.852;9.936;2023-02-28T02:10:56;11.40;;;5.13;;
47960;SDS011;33721;48.852;9.936;2023-02-28T02:38:32;14.80;;;5.63;;
47960;SDS011;33721;48.852;9.936;2023-02-28T02:41:17;13.23;;;5.75;;
47960;SDS011;33721;48.852;9.936;2023-02-28T02:43:46;20.50;;;6.00;;
47960;SDS011;33721;48.852;9.936;2023-02-28T02:48:57;13.32;;;5.57;;
47960;SDS011;33721;48.852;9.936;2023-02-28T02:51:27;13.73;;;6.20;;
47960;SDS011;33721;48.852;9.936;2023-02-28T02:56:48;13.88;;;5.93;;
47960;SDS011;33721;48.852;9.936;2023-02-28T02:59:16;15.52;;;5.97;;
47960;SDS011;33721;48.852;9.936;2023-02-28T03:01:46;16.10;;;6.10;;
47960;SDS011;33721;48.852;9.936;2023-02-28T03:04:18;15.50;;;6.68;;
47960;SDS011;33721;48.852;9.936;2023-02-28T03:06:45;14.80;;;6.18;;
47960;SDS011;33721;48.852;9.936;2023-02-28T03:09:11;14.57;;;5.80;;
47960;SDS011;33721;48.852;9.936;2023-02-28T03:11:37;13.65;;;6.07;;
47960;SDS011;33721;48.852;9.936;2023-02-28T03:16:58;13.13;;;5.68;;
47960;SDS011;33721;48.852;9.936;2023-02-28T03:19:34;14.65;;;5.65;;
47960;SDS011;33721;48.852;9.936;2023-02-28T03:33:00;17.77;;;6.18;;
47960;SDS011;33721;48.852;9.936;2023-02-28T03:35:36;15.40;;;5.97;;
47960;SDS011;33721;48.852;9.936;2023-02-28T03:38:17;16.50;;;6.18;;
47960;SDS011;33721;48.852;9.936;2023-02-28T03:40:48;18.08;;;6.57;;
47960;SDS011;33721;48.852;9.936;2023-02-28T03:43:21;19.08;;;6.55;;
47960;SDS011;33721;48.852;9.936;2023-02-28T03:45:50;18.05;;;6.28;;
47960;SDS011;33721;48.852;9.936;2023-02-28T03:50:43;16.17;;;6.35;;
47960;SDS011;33721;48.852;9.936;2023-02-28T03:53:16;19.02;;;6.55;;
47960;SDS011;33721;48.852;9.936;2023-02-28T03:55:58;18.80;;;6.83;;
47960;SDS011;33721;48.852;9.936;2023-02-28T03:58:54;17.50;;;6.65;;
47960;SDS011;33721;48.852;9.936;2023-02-28T04:03:49;18.85;;;6.45;;
47960;SDS011;33721;48.852;9.936;2023-02-28T04:06:16;13.95;;;6.40;;
47960;SDS011;33721;48.852;9.936;2023-02-28T04:08:44;18.52;;;6.45;;
47960;SDS011;33721;48.852;9.936;2023-02-28T04:13:47;16.50;;;6.82;;
47960;SDS011;33721;48.852;9.936;2023-02-28T04:16:13;17.73;;;7.25;;
47960;SDS011;33721;48.852;9.936;2023-02-28T04:18:39;21.63;;;7.00;;
47960;SDS011;33721;48.852;9.936;2023-02-28T04:21:06;16.95;;;6.68;;
47960;SDS011;33721;48.852;9.936;2023-02-28T04:23:32;18.08;;;7.05;;
47960;SDS011;33721;48.852;9.936;2023-02-28T04:25:58;20.52;;;7.18;;
47960;SDS011;33721;48.852;9.936;2023-02-28T04:28:23;16.92;;;7.03;;
47960;SDS011;33721;48.852;9.936;2023-02-28T04:31:00;16.77;;;7.25;;
47960;SDS011;33721;48.852;9.936;2023-02-28T04:33:28;17.27;;;7.07;;
47960;SDS011;33721;48.852;9.936;2023-02-28T04:36:01;15.38;;;6.70;;
47960;SDS011;33721;48.852;9.936;2023-02-28T04:38:29;18.08;;;6.55;;
47960;SDS011;33721;48.852;9.936;2023-02-28T04:40:58;18.25;;;6.75;;
47960;SDS011;33721;48.852;9.936;2023-02-28T04:43:26;15.82;;;6.15;;
47960;SDS011;33721;48.852;9.936;2023-02-28T04:45:52;15.27;;;6.75;;
47960;SDS011;33721;48.852;9.936;2023-02-28T04:48:21;17.60;;;6.28;;
47960;SDS011;33721;48.852;9.936;2023-02-28T04:50:52;18.33;;;6.45;;
47960;SDS011;33721;48.852;9.936;2023-02-28T04:53:17;21.42;;;6.93;;
47960;SDS011;33721;48.852;9.936;2023-02-28T04:55:44;18.80;;;7.13;;
47960;SDS011;33721;48.852;9.936;2023-02-28T04:58:09;19.92;;;7.13;;
47960;SDS011;33721;48.852;9.936;2023-02-28T05:00:35;14.50;;;6.70;;
47960;SDS011;33721;48.852;9.936;2023-02-28T05:03:01;22.40;;;7.15;;
47960;SDS011;33721;48.852;9.936;2023-02-28T05:05:26;20.10;;;7.57;;
47960;SDS011;33721;48.852;9.936;2023-02-28T05:07:52;20.77;;;7.57;;
47960;SDS011;33721;48.852;9.936;2023-02-28T05:10:20;23.00;;;6.95;;
47960;SDS011;33721;48.852;9.936;2023-02-28T05:12:47;20.35;;;7.63;;
47960;SDS011;33721;48.852;9.936;2023-02-28T05:15:13;19.40;;;7.63;;
47960;SDS011;33721;48.852;9.936;2023-02-28T05:17:40;17.40;;;7.18;;
47960;SDS011;33721;48.852;9.936;2023-02-28T05:20:06;19.98;;;8.02;;
47960;SDS011;33721;48.852;9.936;2023-02-28T05:22:35;21.67;;;7.70;;
47960;SDS011;33721;48.852;9.936;2023-02-28T05:25:02;20.95;;;6.93;;
47960;SDS011;33721;48.852;9.936;2023-02-28T05:27:28;22.23;;;7.40;;
47960;SDS011;33721;48.852;9.936;2023-02-28T05:29:54;24.25;;;8.00;;
47960;SDS011;33721;48.852;9.936;2023-02-28T05:32:19;22.33;;;8.20;;
47960;SDS011;33721;48.852;9.936;2023-02-28T05:34:45;19.77;;;7.22;;
47960;SDS011;33721;48.852;9.936;2023-02-28T05:37:11;20.80;;;8.23;;
47960;SDS011;33721;48.852;9.936;2023-02-28T05:39:40;21.13;;;8.23;;
47960;SDS011;33721;48.852;9.936;2023-02-28T05:42:07;19.63;;;7.90;;
47960;SDS011;33721;48.852;9.936;2023-02-28T05:44:33;24.35;;;8.43;;
47960;SDS011;33721;48.852;9.936;2023-02-28T05:46:58;25.40;;;8.95;;
47960;SDS011;33721;48.852;9.936;2023-02-28T05:49:24;28.92;;;10.55;;
47960;SDS011;33721;48.852;9.936;2023-02-28T05:51:50;25.73;;;8.85;;
47960;SDS011;33721;48.852;9.936;2023-02-28T05:54:15;26.55;;;8.60;;
47960;SDS011;33721;48.852;9.936;2023-02-28T05:56:41;26.83;;;8.95;;
47960;SDS011;33721;48.852;9.936;2023-02-28T05:59:10;26.63;;;8.90;;
47960;SDS011;33721;48.852;9.936;2023-02-28T06:01:40;22.67;;;9.63;;
47960;SDS011;33721;48.852;9.936;2023-02-28T06:04:13;23.98;;;8.88;;
47960;SDS011;33721;48.852;9.936;2023-02-28T06:06:42;20.23;;;7.85;;
47960;SDS011;33721;48.852;9.936;2023-02-28T06:09:14;25.63;;;9.43;;
47960;SDS011;33721;48.852;9.936;2023-02-28T06:11:41;26.23;;;8.75;;
47960;SDS011;33721;48.852;9.936;2023-02-28T06:14:07;25.50;;;10.20;;
47960;SDS011;33721;48.852;9.936;2023-02-28T06:16:34;31.05;;;10.73;;
47960;SDS011;33721;48.852;9.936;2023-02-28T06:19:01;28.88;;;10.82;;
47960;SDS011;33721;48.852;9.936;2023-02-28T06:21:29;24.23;;;9.13;;
47960;SDS011;33721;48.852;9.936;2023-02-28T06:23:55;31.77;;;11.35;;
47960;SDS011;33721;48.852;9.936;2023-02-28T06:26:22;28.65;;;10.35;;
47960;SDS011;33721;48.852;9.936;2023-02-28T06:28:48;24.50;;;8.93;;
47960;SDS011;33721;48.852;9.936;2023-02-28T06:31:15;39.80;;;12.63;;
47960;SDS011;33721;48.852;9.936;2023-02-28T06:33:42;25.67;;;9.57;;
47960;SDS011;33721;48.852;9.936;2023-02-28T06:36:10;28.40;;;9.80;;
47960;SDS011;33721;48.852;9.936;2023-02-28T06:38:37;31.02;;;10.38;;
47960;SDS011;33721;48.852;9.936;2023-02-28T06:41:04;27.40;;;9.65;;
47960;SDS011;33721;48.852;9.936;2023-02-28T06:43:32;26.98;;;9.50;;
47960;SDS011;33721;48.852;9.936;2023-02-28T06:46:01;27.42;;;9.48;;
47960;SDS011;33721;48.852;9.936;2023-02-28T06:48:28;24.05;;;9.30;;
47960;SDS011;33721;48.852;9.936;2023-02-28T06:53:33;30.80;;;9.95;;
47960;SDS011;33721;48.852;9.936;2023-02-28T06:56:03;24.30;;;9.15;;
47960;SDS011;33721;48.852;9.936;2023-02-28T06:58:33;24.63;;;8.63;;
47960;SDS011;33721;48.852;9.936;2023-02-28T07:01:00;24.80;;;9.63;;
47960;SDS011;33721;48.852;9.936;2023-02-28T07:03:26;27.38;;;9.18;;
47960;SDS011;33721;48.852;9.936;2023-02-28T07:05:52;24.20;;;9.73;;
47960;SDS011;33721;48.852;9.936;2023-02-28T07:08:17;26.90;;;10.50;;
47960;SDS011;33721;48.852;9.936;2023-02-28T07:10:43;27.40;;;9.55;;
47960;SDS011;33721;48.852;9.936;2023-02-28T07:13:09;27.48;;;10.27;;
47960;SDS011;33721;48.852;9.936;2023-02-28T07:15:36;24.50;;;8.93;;
47960;SDS011;33721;48.852;9.936;2023-02-28T07:18:02;31.55;;;10.95;;
47960;SDS011;33721;48.852;9.936;2023-02-28T07:20:28;27.45;;;9.88;;
47960;SDS011;33721;48.852;9.936;2023-02-28T07:22:54;31.63;;;11.27;;
47960;SDS011;33721;48.852;9.936;2023-02-28T07:25:25;29.23;;;9.55;;
47960;SDS011;33721;48.852;9.936;2023-02-28T07:27:51;24.80;;;10.32;;
47960;SDS011;33721;48.852;9.936;2023-02-28T07:30:18;26.02;;;9.75;;
47960;SDS011;33721;48.852;9.936;2023-02-28T07:32:44;23.70;;;8.70;;
47960;SDS011;33721;48.852;9.936;2023-02-28T07:35:10;25.55;;;8.90;;
47960;SDS011;33721;48.852;9.936;2023-02-28T07:37:36;23.52;;;9.25;;
47960;SDS011;33721;48.852;9.936;2023-02-28T07:40:03;26.92;;;10.15;;
47960;SDS011;33721;48.852;9.936;2023-02-28T07:42:33;25.23;;;9.38;;
47960;SDS011;33721;48.852;9.936;2023-02-28T07:45:00;30.35;;;10.10;;
47960;SDS011;33721;48.852;9.936;2023-02-28T07:47:25;26.55;;;9.85;;
47960;SDS011;33721;48.852;9.936;2023-02-28T07:49:51;28.45;;;10.00;;
47960;SDS011;33721;48.852;9.936;2023-02-28T07:52:17;25.67;;;9.70;;
47960;SDS011;33721;48.852;9.936;2023-02-28T07:54:43;25.50;;;9.85;;
47960;SDS011;33721;48.852;9.936;2023-02-28T07:57:09;27.58;;;9.38;;
47960;SDS011;33721;48.852;9.936;2023-02-28T07:59:34;23.60;;;9.52;;
47960;SDS011;33721;48.852;9.936;2023-02-28T08:02:00;31.60;;;10.70;;
47960;SDS011;33721;48.852;9.936;2023-02-28T08:04:26;23.48;;;9.82;;
47960;SDS011;33721;48.852;9.936;2023-02-28T08:06:51;27.67;;;10.40;;
47960;SDS011;33721;48.852;9.936;2023-02-28T08:09:18;24.02;;;9.75;;
47960;SDS011;33721;48.852;9.936;2023-02-28T08:11:44;29.55;;;10.80;;
47960;SDS011;33721;48.852;9.936;2023-02-28T08:14:09;28.92;;;10.48;;
47960;SDS011;33721;48.852;9.936;2023-02-28T08:16:35;28.60;;;10.73;;
47960;SDS011;33721;48.852;9.936;2023-02-28T08:19:01;29.33;;;11.50;;
47960;SDS011;33721;48.852;9.936;2023-02-28T08:21:27;32.85;;;11.90;;
47960;SDS011;33721;48.852;9.936;2023-02-28T08:23:53;31.73;;;10.38;;
47960;SDS011;33721;48.852;9.936;2023-02-28T08:26:19;31.88;;;11.20;;
47960;SDS011;33721;48.852;9.936;2023-02-28T08:28:45;24.40;;;10.85;;
47960;SDS011;33721;48.852;9.936;2023-02-28T08:31:11;27.20;;;10.07;;
47960;SDS011;33721;48.852;9.936;2023-02-28T08:33:39;24.45;;;10.63;;
47960;SDS011;33721;48.852;9.936;2023-02-28T08:36:06;26.00;;;10.43;;
47960;SDS011;33721;48.852;9.936;2023-02-28T08:38:34;25.70;;;9.93;;
47960;SDS011;33721;48.852;9.936;2023-02-28T08:41:01;27.67;;;11.05;;
47960;SDS011;33721;48.852;9.936;2023-02-28T08:43:30;24.83;;;10.40;;
47960;SDS011;33721;48.852;9.936;2023-02-28T08:45:56;29.90;;;10.60;;
47960;SDS011;33721;48.852;9.936;2023-02-28T08:48:23;27.77;;;10.73;;
47960;SDS011;33721;48.852;9.936;2023-02-28T08:50:56;30.90;;;10.63;;
47960;SDS011;33721;48.852;9.936;2023-02-28T08:53:21;31.27;;;10.60;;
47960;SDS011;33721;48.852;9.936;2023-02-28T08:55:47;25.75;;;9.65;;
47960;SDS011;33721;48.852;9.936;2023-02-28T08:58:24;29.75;;;10.98;;
47960;SDS011;33721;48.852;9.936;2023-02-28T09:00:50;30.73;;;10.93;;
47960;SDS011;33721;48.852;9.936;2023-02-28T09:03:17;26.20;;;10.90;;
47960;SDS011;33721;48.852;9.936;2023-02-28T09:05:52;27.23;;;10.60;;
47960;SDS011;33721;48.852;9.936;2023-02-28T09:08:23;26.23;;;10.15;;
47960;SDS011;33721;48.852;9.936;2023-02-28T09:10:49;28.13;;;11.15;;
47960;SDS011;33721;48.852;9.936;2023-02-28T09:13:16;27.92;;;10.90;;
47960;SDS011;33721;48.852;9.936;2023-02-28T09:15:43;27.40;;;10.32;;
47960;SDS011;33721;48.852;9.936;2023-02-28T09:18:08;27.10;;;10.93;;
47960;SDS011;33721;48.852;9.936;2023-02-28T09:20:36;31.65;;;11.20;;
47960;SDS011;33721;48.852;9.936;2023-02-28T09:23:04;26.93;;;11.33;;
47960;SDS011;33721;48.852;9.936;2023-02-28T09:25:29;30.52;;;11.93;;
47960;SDS011;33721;48.852;9.936;2023-02-28T09:27:55;30.55;;;10.57;;
47960;SDS011;33721;48.852;9.936;2023-02-28T09:30:21;26.85;;;10.80;;
47960;SDS011;33721;48.852;9.936;2023-02-28T09:32:46;28.50;;;10.65;;
47960;SDS011;33721;48.852;9.936;2023-02-28T09:35:17;31.00;;;11.00;;
47960;SDS011;33721;48.852;9.936;2023-02-28T09:37:43;26.98;;;10.48;;
47960;SDS011;33721;48.852;9.936;2023-02-28T09:40:10;24.55;;;10.68;;
47960;SDS011;33721;48.852;9.936;2023-02-28T09:42:37;25.48;;;9.95;;
47960;SDS011;33721;48.852;9.936;2023-02-28T09:45:06;22.95;;;10.35;;
47960;SDS011;33721;48.852;9.936;2023-02-28T09:47:47;28.15;;;10.90;;
47960;SDS011;33721;48.852;9.936;2023-02-28T09:50:17;27.50;;;10.77;;
47960;SDS011;33721;48.852;9.936;2023-02-28T09:52:58;24.55;;;10.55;;
47960;SDS011;33721;48.852;9.936;2023-02-28T09:55:33;24.77;;;10.10;;
47960;SDS011;33721;48.852;9.936;2023-02-28T09:58:10;28.35;;;10.90;;
47960;SDS011;33721;48.852;9.936;2023-02-28T10:00:49;28.65;;;11.30;;
47960;SDS011;33721;48.852;9.936;2023-02-28T10:03:31;27.27;;;10.95;;
47960;SDS011;33721;48.852;9.936;2023-02-28T10:06:06;21.67;;;8.05;;
47960;SDS011;33721;48.852;9.936;2023-02-28T10:08:38;25.35;;;10.55;;
47960;SDS011;33721;48.852;9.936;2023-02-28T10:11:28;29.15;;;11.05;;
47960;SDS011;33721;48.852;9.936;2023-02-28T10:14:13;32.80;;;11.40;;
47960;SDS011;33721;48.852;9.936;2023-02-28T10:16:44;24.63;;;10.35;;
47960;SDS011;33721;48.852;9.936;2023-02-28T10:19:28;25.63;;;11.45;;
47960;SDS011;33721;48.852;9.936;2023-02-28T10:22:11;28.60;;;11.38;;
47960;SDS011;33721;48.852;9.936;2023-02-28T10:24:41;27.80;;;11.65;;
47960;SDS011;33721;48.852;9.936;2023-02-28T10:27:24;24.40;;;11.02;;
47960;SDS011;33721;48.852;9.936;2023-02-28T10:29:54;27.58;;;11.65;;
47960;SDS011;33721;48.852;9.936;2023-02-28T10:32:25;33.28;;;15.52;;
47960;SDS011;33721;48.852;9.936;2023-02-28T10:35:06;28.25;;;11.98;;
47960;SDS011;33721;48.852;9.936;2023-02-28T10:37:41;25.80;;;12.00;;
47960;SDS011;33721;48.852;9.936;2023-02-28T10:40:24;27.63;;;11.35;;
47960;SDS011;33721;48.852;9.936;2023-02-28T10:42:56;25.77;;;11.25;;
47960;SDS011;33721;48.852;9.936;2023-02-28T10:45:29;31.35;;;11.20;;
47960;SDS011;33721;48.852;9.936;2023-02-28T10:48:25;31.73;;;11.77;;
47960;SDS011;33721;48.852;9.936;2023-02-28T10:50:52;25.92;;;11.20;;
47960;SDS011;33721;48.852;9.936;2023-02-28T11:03:54;31.08;;;11.30;;
47960;SDS011;33721;48.852;9.936;2023-02-28T11:06:23;27.15;;;11.45;;
47960;SDS011;33721;48.852;9.936;2023-02-28T11:09:02;26.60;;;10.77;;
47960;SDS011;33721;48.852;9.936;2023-02-28T11:11:46;27.60;;;11.70;;
47960;SDS011;33721;48.852;9.936;2023-02-28T11:14:19;25.83;;;10.90;;
47960;SDS011;33721;48.852;9.936;2023-02-28T11:16:47;28.58;;;10.85;;
47960;SDS011;33721;48.852;9.936;2023-02-28T11:19:18;25.27;;;11.20;;
47960;SDS011;33721;48.852;9.936;2023-02-28T11:21:52;25.42;;;10.73;;
47960;SDS011;33721;48.852;9.936;2023-02-28T11:26:54;22.60;;;9.65;;
47960;SDS011;33721;48.852;9.936;2023-02-28T11:29:24;26.45;;;10.70;;
47960;SDS011;33721;48.852;9.936;2023-02-28T11:32:07;26.10;;;10.70;;
47960;SDS011;33721;48.852;9.936;2023-02-28T11:34:38;23.95;;;10.50;;
47960;SDS011;33721;48.852;9.936;2023-02-28T11:37:08;25.42;;;10.85;;
47960;SDS011;33721;48.852;9.936;2023-02-28T11:39:41;24.15;;;10.80;;
47960;SDS011;33721;48.852;9.936;2023-02-28T12:01:43;23.92;;;10.13;;
47960;SDS011;33721;48.852;9.936;2023-02-28T12:04:36;22.73;;;10.10;;
47960;SDS011;33721;48.852;9.936;2023-02-28T12:12:15;26.80;;;10.23;;
47960;SDS011;33721;48.852;9.936;2023-02-28T12:21:08;22.50;;;10.07;;
47960;SDS011;33721;48.852;9.936;2023-02-28T12:26:36;23.05;;;10.18;;
47960;SDS011;33721;48.852;9.936;2023-02-28T12:31:53;20.77;;;9.90;;
47960;SDS011;33721;48.852;9.936;2023-02-28T12:34:27;26.25;;;11.15;;
47960;SDS011;33721;48.852;9.936;2023-02-28T12:37:04;26.88;;;10.35;;
47960;SDS011;33721;48.852;9.936;2023-02-28T12:39:40;22.85;;;10.23;;
47960;SDS011;33721;48.852;9.936;2023-02-28T12:42:15;22.88;;;9.63;;
47960;SDS011;33721;48.852;9.936;2023-02-28T12:44:55;26.77;;;10.20;;
47960;SDS011;33721;48.852;9.936;2023-02-28T12:47:24;20.02;;;9.32;;
47960;SDS011;33721;48.852;9.936;2023-02-28T12:49:58;25.90;;;9.88;;
47960;SDS011;33721;48.852;9.936;2023-02-28T12:52:31;25.25;;;10.75;;
47960;SDS011;33721;48.852;9.936;2023-02-28T13:00:16;21.35;;;10.52;;
47960;SDS011;33721;48.852;9.936;2023-02-28T13:13:57;25.33;;;10.77;;
47960;SDS011;33721;48.852;9.936;2023-02-28T13:16:24;24.55;;;11.15;;
47960;SDS011;33721;48.852;9.936;2023-02-28T13:18:50;25.00;;;10.95;;
47960;SDS011;33721;48.852;9.936;2023-02-28T13:21:24;27.95;;;11.68;;
47960;SDS011;33721;48.852;9.936;2023-02-28T13:34:33;23.65;;;10.57;;
47960;SDS011;33721;48.852;9.936;2023-02-28T13:39:56;24.75;;;10.45;;
47960;SDS011;33721;48.852;9.936;2023-02-28T13:42:48;26.63;;;10.63;;
47960;SDS011;33721;48.852;9.936;2023-02-28T13:47:56;26.33;;;11.75;;
47960;SDS011;33721;48.852;9.936;2023-02-28T14:01:08;24.73;;;10.88;;
47960;SDS011;33721;48.852;9.936;2023-02-28T14:03:58;23.27;;;10.68;;
47960;SDS011;33721;48.852;9.936;2023-02-28T14:06:32;28.80;;;11.10;;
47960;SDS011;33721;48.852;9.936;2023-02-28T14:11:30;24.80;;;10.70;;
47960;SDS011;33721;48.852;9.936;2023-02-28T14:14:00;25.85;;;10.73;;
47960;SDS011;33721;48.852;9.936;2023-02-28T14:16:28;30.27;;;11.98;;
47960;SDS011;33721;48.852;9.936;2023-02-28T14:19:13;28.40;;;11.73;;
47960;SDS011;33721;48.852;9.936;2023-02-28T14:24:32;26.45;;;11.02;;
47960;SDS011;33721;48.852;9.936;2023-02-28T14:35:13;25.95;;;10.57;;
47960;SDS011;33721;48.852;9.936;2023-02-28T14:37:46;26.42;;;11.50;;
47960;SDS011;33721;48.852;9.936;2023-02-28T14:40:16;24.30;;;10.57;;
47960;SDS011;33721;48.852;9.936;2023-02-28T14:47:52;26.55;;;10.07;;
47960;SDS011;33721;48.852;9.936;2023-02-28T14:50:21;28.08;;;11.25;;
47960;SDS011;33721;48.852;9.936;2023-02-28T14:52:51;28.02;;;10.93;;
47960;SDS011;33721;48.852;9.936;2023-02-28T14:55:18;24.77;;;10.18;;
47960;SDS011;33721;48.852;9.936;2023-02-28T14:58:19;24.00;;;11.48;;
47960;SDS011;33721;48.852;9.936;2023-02-28T15:00:55;25.85;;;11.55;;
47960;SDS011;33721;48.852;9.936;2023-02-28T15:03:32;30.30;;;11.65;;
47960;SDS011;33721;48.852;9.936;2023-02-28T15:06:03;28.00;;;10.90;;
47960;SDS011;33721;48.852;9.936;2023-02-28T15:08:42;26.83;;;11.73;;
47960;SDS011;33721;48.852;9.936;2023-02-28T15:11:12;25.27;;;11.40;;
47960;SDS011;33721;48.852;9.936;2023-02-28T15:13:56;32.58;;;12.93;;
47960;SDS011;33721;48.852;9.936;2023-02-28T15:21:59;31.80;;;12.88;;
47960;SDS011;33721;48.852;9.936;2023-02-28T15:27:06;30.75;;;11.93;;
47960;SDS011;33721;48.852;9.936;2023-02-28T15:29:44;28.52;;;11.20;;
47960;SDS011;33721;48.852;9.936;2023-02-28T15:32:25;28.05;;;11.70;;
47960;SDS011;33721;48.852;9.936;2023-02-28T15:34:56;28.25;;;11.73;;
47960;SDS011;33721;48.852;9.936;2023-02-28T15:39:52;28.25;;;12.60;;
47960;SDS011;33721;48.852;9.936;2023-02-28T15:42:20;27.75;;;12.57;;
47960;SDS011;33721;48.852;9.936;2023-02-28T15:44:47;25.50;;;11.90;;
47960;SDS011;33721;48.852;9.936;2023-02-28T15:47:17;29.13;;;11.80;;
47960;SDS011;33721;48.852;9.936;2023-02-28T15:49:53;31.08;;;12.02;;
47960;SDS011;33721;48.852;9.936;2023-02-28T15:52:24;26.52;;;11.57;;
47960;SDS011;33721;48.852;9.936;2023-02-28T15:55:16;25.23;;;10.63;;
47960;SDS011;33721;48.852;9.936;2023-02-28T15:57:50;32.50;;;11.98;;
47960;SDS011;33721;48.852;9.936;2023-02-28T16:00:22;29.58;;;11.82;;
47960;SDS011;33721;48.852;9.936;2023-02-28T16:02:49;33.15;;;12.25;;
47960;SDS011;33721;48.852;9.936;2023-02-28T16:07:55;32.40;;;12.73;;
47960;SDS011;33721;48.852;9.936;2023-02-28T16:10:24;27.67;;;12.65;;
47960;SDS011;33721;48.852;9.936;2023-02-28T16:12:55;30.77;;;12.88;;
47960;SDS011;33721;48.852;9.936;2023-02-28T16:15:29;29.35;;;13.10;;
47960;SDS011;33721;48.852;9.936;2023-02-28T16:18:00;29.63;;;12.60;;
47960;SDS011;33721;48.852;9.936;2023-02-28T16:20:26;29.10;;;12.68;;
47960;SDS011;33721;48.852;9.936;2023-02-28T16:22:54;30.08;;;12.65;;
47960;SDS011;33721;48.852;9.936;2023-02-28T16:25:23;31.00;;;13.32;;
47960;SDS011;33721;48.852;9.936;2023-02-28T16:27:53;36.65;;;14.07;;
47960;SDS011;33721;48.852;9.936;2023-02-28T16:30:21;31.98;;;14.23;;
47960;SDS011;33721;48.852;9.936;2023-02-28T16:32:51;50.97;;;18.92;;
47960;SDS011;33721;48.852;9.936;2023-02-28T16:35:19;51.47;;;19.65;;
47960;SDS011;33721;48.852;9.936;2023-02-28T16:37:45;30.63;;;13.00;;
47960;SDS011;33721;48.852;9.936;2023-02-28T16:40:15;46.20;;;16.13;;
47960;SDS011;33721;48.852;9.936;2023-02-28T16:42:45;44.50;;;15.95;;
47960;SDS011;33721;48.852;9.936;2023-02-28T16:45:20;37.28;;;14.52;;
47960;SDS011;33721;48.852;9.936;2023-02-28T16:47:48;36.38;;;14.23;;
47960;SDS011;33721;48.852;9.936;2023-02-28T16:50:17;33.72;;;14.38;;
47960;SDS011;33721;48.852;9.936;2023-02-28T16:52:46;31.98;;;13.63;;
47960;SDS011;33721;48.852;9.936;2023-02-28T16:55:12;31.65;;;13.65;;
47960;SDS011;33721;48.852;9.936;2023-02-28T16:57:39;36.65;;;15.68;;
47960;SDS011;33721;48.852;9.936;2023-02-28T17:00:06;34.33;;;15.38;;
47960;SDS011;33721;48.852;9.936;2023-02-28T17:02:33;31.67;;;14.18;;
47960;SDS011;33721;48.852;9.936;2023-02-28T17:04:59;28.63;;;11.80;;
47960;SDS011;33721;48.852;9.936;2023-02-28T17:07:25;25.67;;;11.77;;
47960;SDS011;33721;48.852;9.936;2023-02-28T17:09:50;35.75;;;14.27;;
47960;SDS011;33721;48.852;9.936;2023-02-28T17:12:16;38.45;;;15.70;;
47960;SDS011;33721;48.852;9.936;2023-02-28T17:14:42;38.63;;;15.70;;
47960;SDS011;33721;48.852;9.936;2023-02-28T17:17:09;35.28;;;15.52;;
47960;SDS011;33721;48.852;9.936;2023-02-28T17:19:42;28.65;;;13.25;;
47960;SDS011;33721;48.852;9.936;2023-02-28T17:22:11;40.03;;;14.18;;
47960;SDS011;33721;48.852;9.936;2023-02-28T17:24:36;33.85;;;13.77;;
47960;SDS011;33721;48.852;9.936;2023-02-28T17:27:02;32.10;;;13.48;;
47960;SDS011;33721;48.852;9.936;2023-02-28T17:29:28;35.05;;;13.77;;
47960;SDS011;33721;48.852;9.936;2023-02-28T17:31:54;30.33;;;12.90;;
47960;SDS011;33721;48.852;9.936;2023-02-28T17:34:20;33.40;;;13.57;;
47960;SDS011;33721;48.852;9.936;2023-02-28T17:36:47;32.88;;;13.80;;
47960;SDS011;33721;48.852;9.936;2023-02-28T17:39:14;35.08;;;13.68;;
47960;SDS011;33721;48.852;9.936;2023-02-28T17:41:44;34.03;;;13.98;;
47960;SDS011;33721;48.852;9.936;2023-02-28T17:44:10;33.42;;;12.57;;